Flight Track Log - Related Links

Times and Time Zones

All times are in EST time to prevent confusion due to time zone crossing. See the SWA16 flight status page for this flight to view local times or setup timezone preferences in your user account.

Time Position Orientation Groundspeed Altitude Reporting Facility
EST Latitude Longitude Course Direction KTS MPH feet Rate Location/Type
Mon 06:30:11 AM 40.6333 -74.2167 234° Southwest 191 220 2,600  Level New York TRACON
Mon 06:31:11 AM 40.6333 -74.2833 270° West 204 235 4,700 2,300 Climbing New York TRACON
Mon 06:32:11 AM 40.6333 -74.3667 270° West 237 273 7,200 3,050 Climbing New York TRACON
Mon 06:33:11 AM 40.6167 -74.4667 258° West 239 275 10,800 2,513 Climbing New York TRACON
Mon 06:34:51 AM 40.6028 -74.6250 263° West 310 357 13,900 2,325 Climbing New York Center
Mon 06:35:00 AM 40.4664 -74.7703 234° Southwest  Level Estimated
Mon 06:35:51 AM 40.5900 -74.7611 263° West 340 391 17,000  Level New York Center
Mon 06:36:51 AM 40.5753 -74.8831 261° West 340 391 19,800 2,450 Climbing New York Center
Mon 06:37:51 AM 40.5319 -74.9953 243° Southwest 340 391 21,900 2,100 Climbing New York Center
Mon 06:38:51 AM 40.4778 -75.1064 237° Southwest 351 404 24,000 2,300 Climbing New York Center
Mon 06:39:51 AM 40.4178 -75.2089 232° Southwest 356 410 26,500 2,600 Climbing New York Center
Mon 06:40:51 AM 40.3600 -75.3033 231° Southwest 356 410 29,200 2,300 Climbing New York Center
Mon 06:41:51 AM 40.3022 -75.3947 230° Southwest 341 392 31,100 1,800 Climbing New York Center
Mon 06:42:51 AM 40.2486 -75.4864 233° Southwest 336 387 32,800 1,650 Climbing New York Center
Mon 06:43:51 AM 40.1950 -75.5753 232° Southwest 336 387 34,400 1,450 Climbing New York Center
Mon 06:44:51 AM 40.1392 -75.6636 230° Southwest 330 380 35,700 800 Climbing New York Center
Mon 06:45:51 AM 40.0878 -75.7497 232° Southwest 319 367 36,000 151 Climbing New York Center
Mon 06:46:50 AM 40.0339 -75.8381 231° Southwest 314 361 36,000  Level New York Center
Mon 06:47:50 AM 39.9778 -75.9261 230° Southwest 314 361 36,000  Level New York Center
Mon 06:48:50 AM 39.9261 -76.0117 232° Southwest 314 361 36,000  Level New York Center
Mon 06:49:50 AM 39.8744 -76.0942 231° Southwest 314 361 36,000  Level New York Center
Mon 06:50:50 AM 39.8183 -76.1847 231° Southwest 313 360 36,000 63 Level New York Center
Mon 06:53:00 AM 39.7008 -76.3683 230° Southwest 309 356 36,200 411 Climbing Washington Center
Mon 06:54:00 AM 39.6458 -76.4567 231° Southwest 309 356 37,300 915 Climbing Washington Center
Mon 06:54:58 AM 39.5953 -76.5314 229° Southwest 309 356 38,000 359 Climbing Washington Center
Mon 06:55:57 AM 39.5406 -76.6194 231° Southwest 314 361 38,000  Level Washington Center
Mon 06:56:58 AM 39.4833 -76.7075 230° Southwest 314 361 38,000  Level Washington Center
Mon 06:57:58 AM 39.4306 -76.7925 231° Southwest 314 361 38,000  Level Washington Center
Mon 06:58:59 AM 39.3756 -76.8775 230° Southwest 319 367 38,000  Level Washington Center
Mon 06:59:58 AM 39.3203 -76.9653 231° Southwest 319 367 38,000  Level Washington Center
Mon 07:00:58 AM 39.2653 -77.0500 230° Southwest 319 367 38,000  Level Washington Center
Mon 07:01:58 AM 39.2100 -77.1344 230° Southwest 319 367 38,000  Level Washington Center
Mon 07:02:59 AM 39.1589 -77.2192 232° Southwest 319 367 38,000  Level Washington Center
Mon 07:04:00 AM 39.1014 -77.3061 230° Southwest 319 367 38,000  Level Washington Center
Mon 07:04:58 AM 39.0458 -77.3903 230° Southwest 319 367 38,000  Level Washington Center
Mon 07:05:59 AM 38.9903 -77.4744 230° Southwest 319 367 38,000  Level Washington Center
Mon 07:07:00 AM 38.9306 -77.5717 232° Southwest 319 367 38,000  Level Washington Center
Mon 07:07:57 AM 38.8792 -77.6475 229° Southwest 319 367 38,000  Level Washington Center
Mon 07:08:58 AM 38.8300 -77.7233 230° Southwest 319 367 38,000  Level Washington Center
Mon 07:09:57 AM 38.7592 -77.8281 229° Southwest 328 377 38,000  Level Washington Center
Mon 07:10:58 AM 38.7033 -77.9142 230° Southwest 323 372 38,000  Level Washington Center
Mon 07:11:59 AM 38.6475 -77.9972 229° Southwest 318 366 38,000  Level Washington Center
Mon 07:12:57 AM 38.5917 -78.0806 229° Southwest 318 366 38,000  Level Washington Center
Mon 07:13:58 AM 38.5356 -78.1661 230° Southwest 318 366 38,000  Level Washington Center
Mon 07:14:59 AM 38.4794 -78.2519 230° Southwest 318 366 38,000  Level Washington Center
Mon 07:16:00 AM 38.4214 -78.3372 229° Southwest 323 372 38,000  Level Washington Center
Mon 07:16:58 AM 38.3650 -78.4225 230° Southwest 323 372 38,000  Level Washington Center
Mon 07:17:58 AM 38.3089 -78.5078 230° Southwest 323 372 38,000  Level Washington Center
Mon 07:18:59 AM 38.2567 -78.5928 232° Southwest 316 364 38,000  Level Washington Center
Mon 07:20:00 AM 38.2025 -78.6700 228° Southwest 316 364 38,000  Level Washington Center
Mon 07:21:00 AM 38.1483 -78.7522 230° Southwest 321 369 38,000  Level Washington Center
Mon 07:21:58 AM 38.0897 -78.8369 229° Southwest 321 369 38,000  Level Washington Center
Mon 07:22:59 AM 38.0311 -78.9239 229° Southwest 321 369 38,000  Level Washington Center
Mon 07:23:57 AM 37.9725 -79.0083 229° Southwest 321 369 38,000  Level Washington Center
Mon 07:24:58 AM 37.9092 -79.1028 230° Southwest 321 369 38,000  Level Washington Center
Mon 07:25:59 AM 37.8506 -79.1842 228° Southwest 321 369 38,000  Level Washington Center
Mon 07:27:00 AM 37.7894 -79.2681 227° Southwest 321 369 38,000  Level Washington Center
Mon 07:27:58 AM 37.7286 -79.3517 227° Southwest 321 369 38,000  Level Washington Center
Mon 07:28:58 AM 37.6653 -79.4353 226° Southwest 333 383 38,000  Level Washington Center
Mon 07:29:59 AM 37.6042 -79.5186 227° Southwest 333 383 38,000  Level Washington Center
Mon 07:30:59 AM 37.5431 -79.6019 227° Southwest 333 383 38,000  Level Washington Center
Mon 07:33:15 AM 37.4069 -79.7911 228° Southwest 326 375 38,000  Level Atlanta Center
Mon 07:34:15 AM 37.3389 -79.8808 226° Southwest 326 375 38,000  Level Atlanta Center
Mon 07:35:15 AM 37.2792 -79.9622 227° Southwest 326 375 38,000  Level Atlanta Center
Mon 07:36:15 AM 37.2192 -80.0408 226° Southwest 326 375 38,000  Level Atlanta Center
Mon 07:37:15 AM 37.1594 -80.1247 228° Southwest 326 375 38,000  Level Atlanta Center
Mon 07:38:15 AM 37.1053 -80.1950 226° Southwest 326 375 38,000  Level Atlanta Center
Mon 07:39:15 AM 37.0414 -80.2814 227° Southwest 326 375 38,000  Level Atlanta Center
Mon 07:40:15 AM 36.9811 -80.3594 226° Southwest 326 375 38,000  Level Atlanta Center
Mon 07:41:15 AM 36.9211 -80.4456 229° Southwest 326 375 38,000  Level Atlanta Center
Mon 07:42:15 AM 36.8528 -80.5342 226° Southwest 326 375 38,000  Level Atlanta Center
Mon 07:43:15 AM 36.7906 -80.6147 226° Southwest 326 375 38,000  Level Atlanta Center
Mon 07:44:15 AM 36.7322 -80.6950 228° Southwest 326 375 38,000  Level Atlanta Center
Mon 07:45:15 AM 36.6719 -80.7778 228° Southwest 321 369 38,000  Level Atlanta Center
Mon 07:46:15 AM 36.6114 -80.8578 227° Southwest 326 375 38,000  Level Atlanta Center
Mon 07:47:15 AM 36.5508 -80.9375 227° Southwest 326 375 38,000  Level Atlanta Center
Mon 07:48:15 AM 36.4903 -81.0200 228° Southwest 326 375 38,000  Level Atlanta Center
Mon 07:49:15 AM 36.4297 -81.0972 226° Southwest 326 375 38,000  Level Atlanta Center
Mon 07:50:15 AM 36.3692 -81.1767 227° Southwest 326 375 38,000  Level Atlanta Center
Mon 07:51:15 AM 36.3083 -81.2589 227° Southwest 326 375 38,000  Level Atlanta Center
Mon 07:52:15 AM 36.2433 -81.3408 225° Southwest 326 375 38,000  Level Atlanta Center
Mon 07:53:15 AM 36.1828 -81.4225 227° Southwest 326 375 38,000  Level Atlanta Center
Mon 07:54:15 AM 36.1217 -81.5017 226° Southwest 326 375 38,000  Level Atlanta Center
Mon 07:55:15 AM 36.0586 -81.5833 226° Southwest 326 375 38,000  Level Atlanta Center
Mon 07:56:15 AM 36.0017 -81.6569 226° Southwest 326 375 38,000  Level Atlanta Center
Mon 07:57:15 AM 35.9408 -81.7356 226° Southwest 331 381 38,000  Level Atlanta Center
Mon 07:58:15 AM 35.8797 -81.8194 228° Southwest 331 381 38,000  Level Atlanta Center
Mon 07:59:15 AM 35.8144 -81.9006 225° Southwest 331 381 38,000  Level Atlanta Center
Mon 08:00:15 AM 35.7511 -81.9789 225° Southwest 326 375 38,000  Level Atlanta Center
Mon 08:01:15 AM 35.6919 -82.0572 227° Southwest 326 375 38,000  Level Atlanta Center
Mon 08:02:15 AM 35.6283 -82.1378 226° Southwest 326 375 38,000  Level Atlanta Center
Mon 08:03:15 AM 35.5669 -82.2158 226° Southwest 326 375 38,000  Level Atlanta Center
Mon 08:04:15 AM 35.5036 -82.2989 227° Southwest 326 375 38,000  Level Atlanta Center
Mon 08:05:15 AM 35.4400 -82.3742 224° Southwest 326 375 38,000  Level Atlanta Center
Mon 08:06:15 AM 35.3783 -82.4519 226° Southwest 326 375 38,000  Level Atlanta Center
Mon 08:07:15 AM 35.3167 -82.5319 227° Southwest 326 375 38,000  Level Atlanta Center
Mon 08:08:15 AM 35.2489 -82.6119 224° Southwest 320 368 38,000  Level Atlanta Center
Mon 08:09:15 AM 35.1850 -82.6919 226° Southwest 320 368 38,000  Level Atlanta Center
Mon 08:10:15 AM 35.1253 -82.7664 226° Southwest 320 368 38,000  Level Atlanta Center
Mon 08:11:15 AM 35.0614 -82.8461 226° Southwest 320 368 38,000  Level Atlanta Center
Mon 08:12:15 AM 34.9956 -82.9283 226° Southwest 329 379 38,000  Level Atlanta Center
Mon 08:13:15 AM 34.9336 -83.0075 226° Southwest 329 379 38,000  Level Atlanta Center
Mon 08:14:15 AM 34.8736 -83.0742 222° Southwest 335 386 38,000  Level Atlanta Center
Mon 08:15:15 AM 34.8075 -83.1508 224° Southwest 335 386 38,000  Level Atlanta Center
Mon 08:16:15 AM 34.7414 -83.2450 230° Southwest 328 377 38,000  Level Atlanta Center
Mon 08:17:15 AM 34.6811 -83.3164 224° Southwest 334 384 38,000  Level Atlanta Center
Mon 08:18:15 AM 34.6086 -83.3978 223° Southwest 329 379 38,000  Level Atlanta Center
Mon 08:19:15 AM 34.5464 -83.4764 226° Southwest 329 379 38,000  Level Atlanta Center
Mon 08:20:15 AM 34.4861 -83.5550 227° Southwest 334 384 38,000  Level Atlanta Center
Mon 08:21:15 AM 34.4197 -83.6358 225° Southwest 334 384 38,000  Level Atlanta Center
Mon 08:22:15 AM 34.3594 -83.7167 228° Southwest 326 375 38,000  Level Atlanta Center
Mon 08:23:15 AM 34.2992 -83.7950 227° Southwest 326 375 38,000  Level Atlanta Center
Mon 08:24:15 AM 34.2344 -83.8731 225° Southwest 326 375 38,000  Level Atlanta Center
Mon 08:25:15 AM 34.1742 -83.9508 227° Southwest 331 381 38,000  Level Atlanta Center
Mon 08:26:15 AM 34.1178 -84.0211 226° Southwest 331 381 38,000  Level Atlanta Center
Mon 08:27:15 AM 34.0508 -84.1039 226° Southwest 326 375 38,000  Level Atlanta Center
Mon 08:28:15 AM 33.9903 -84.1817 227° Southwest 326 375 38,000  Level Atlanta Center
Mon 08:29:15 AM 33.9233 -84.2642 226° Southwest 334 384 38,000  Level Atlanta Center
Mon 08:30:15 AM 33.8586 -84.3439 226° Southwest 334 384 38,000  Level Atlanta Center
Mon 08:31:15 AM 33.7978 -84.4211 227° Southwest 334 384 38,000  Level Atlanta Center
Mon 08:32:15 AM 33.7328 -84.5033 226° Southwest 334 384 38,000  Level Atlanta Center
Mon 08:33:15 AM 33.6636 -84.5928 227° Southwest 334 384 38,000  Level Atlanta Center
Mon 08:34:15 AM 33.6047 -84.6622 224° Southwest 328 377 38,000  Level Atlanta Center
Mon 08:35:15 AM 33.5333 -84.7517 226° Southwest 328 377 38,000  Level Atlanta Center
Mon 08:36:15 AM 33.4744 -84.8258 226° Southwest 333 383 38,000  Level Atlanta Center
Mon 08:37:15 AM 33.4092 -84.9022 224° Southwest 333 383 38,000  Level Atlanta Center
Mon 08:38:15 AM 33.3439 -84.9836 226° Southwest 333 383 38,000  Level Atlanta Center
Mon 08:39:15 AM 33.2808 -85.0625 226° Southwest 333 383 38,000  Level Atlanta Center
Mon 08:40:15 AM 33.2153 -85.1414 225° Southwest 338 389 38,000  Level Atlanta Center
Mon 08:41:15 AM 33.1539 -85.2272 230° Southwest 338 389 38,000  Level Atlanta Center
Mon 08:42:15 AM 33.0864 -85.3181 228° Southwest 333 383 38,000  Level Atlanta Center
Mon 08:43:15 AM 33.0228 -85.3917 224° Southwest 327 376 38,000  Level Atlanta Center
Mon 08:44:15 AM 32.9614 -85.4747 229° Southwest 327 376 38,000  Level Atlanta Center
Mon 08:45:15 AM 32.9019 -85.5628 231° Southwest 333 383 38,000  Level Atlanta Center
Mon 08:46:15 AM 32.8361 -85.6433 226° Southwest 338 389 38,000  Level Atlanta Center
Mon 08:47:15 AM 32.7767 -85.7261 230° Southwest 338 389 38,000  Level Atlanta Center
Mon 08:48:15 AM 32.7108 -85.8089 227° Southwest 338 389 38,000  Level Atlanta Center
Mon 08:49:15 AM 32.6469 -85.8964 229° Southwest 333 383 38,000  Level Atlanta Center
Mon 08:50:15 AM 32.5872 -85.9789 229° Southwest 333 383 38,000  Level Atlanta Center
Mon 08:51:15 AM 32.5253 -86.0614 228° Southwest 333 383 38,000  Level Atlanta Center
Mon 08:52:15 AM 32.4592 -86.1461 227° Southwest 341 392 38,000  Level Atlanta Center
Mon 08:53:15 AM 32.3972 -86.2306 229° Southwest 341 392 38,000  Level Atlanta Center
Mon 08:54:15 AM 32.3331 -86.3128 227° Southwest 341 392 38,000  Level Atlanta Center
Mon 08:55:15 AM 32.2711 -86.3944 228° Southwest 336 387 38,000  Level Atlanta Center
Mon 08:56:15 AM 32.2108 -86.4764 229° Southwest 336 387 38,000  Level Atlanta Center
Mon 08:57:15 AM 32.1486 -86.5631 230° Southwest 336 387 38,000  Level Atlanta Center
Mon 08:58:15 AM 32.0844 -86.6447 227° Southwest 336 387 38,000  Level Atlanta Center
Mon 08:59:15 AM 32.0203 -86.7211 225° Southwest 341 392 38,000  Level Atlanta Center
Mon 09:00:15 AM 31.9556 -86.8050 228° Southwest 353 406 38,000  Level Atlanta Center
Mon 09:02:10 AM 31.8344 -86.9578 227° Southwest 343 395 38,000  Level Houston Center
Mon 09:03:12 AM 31.7678 -87.0400 226° Southwest 347 399 38,000  Level Houston Center
Mon 09:04:13 AM 31.6917 -87.1397 228° Southwest 343 395 38,000  Level Houston Center
Mon 09:05:15 AM 31.6275 -87.2211 227° Southwest 340 391 38,000  Level Houston Center
Mon 09:06:16 AM 31.5631 -87.3044 228° Southwest 344 396 38,000  Level Houston Center
Mon 09:07:18 AM 31.4978 -87.3858 227° Southwest 342 394 38,000  Level Houston Center
Mon 09:08:20 AM 31.4328 -87.4692 228° Southwest 346 398 38,000  Level Houston Center
Mon 09:09:21 AM 31.3692 -87.5511 228° Southwest 341 392 38,000  Level Houston Center
Mon 09:10:23 AM 31.3028 -87.6344 227° Southwest 349 402 38,000  Level Houston Center
Mon 09:11:24 AM 31.2381 -87.7178 228° Southwest 347 399 38,000  Level Houston Center
Mon 09:12:25 AM 31.1642 -87.8106 227° Southwest 347 399 38,000  Level Houston Center
Mon 09:13:27 AM 31.0994 -87.8922 227° Southwest 346 398 38,000  Level Houston Center
Mon 09:14:28 AM 31.0450 -87.9828 235° Southwest 343 395 38,000  Level Houston Center
Mon 09:15:30 AM 31.0069 -88.0819 246° West 337 388 38,000  Level Houston Center
Mon 09:16:31 AM 30.9672 -88.1817 245° Southwest 340 391 38,000  Level Houston Center
Mon 09:17:33 AM 30.9217 -88.3033 246° West 344 396 38,000  Level Houston Center
Mon 09:18:34 AM 30.8847 -88.4028 247° West 337 388 38,000  Level Houston Center
Mon 09:19:36 AM 30.8464 -88.5017 246° West 337 388 38,000  Level Houston Center
Mon 09:20:37 AM 30.8081 -88.6019 246° West 339 390 38,000  Level Houston Center
Mon 09:21:39 AM 30.7708 -88.6983 246° West 336 387 38,000  Level Houston Center
Mon 09:22:40 AM 30.7317 -88.7981 245° Southwest 338 389 38,000  Level Houston Center
Mon 09:23:42 AM 30.6933 -88.8969 246° West 335 386 38,000  Level Houston Center
Mon 09:24:43 AM 30.6544 -88.9986 246° West 337 388 38,000  Level Houston Center
Mon 09:25:45 AM 30.6072 -89.1189 246° West 341 392 38,000  Level Houston Center
Mon 09:26:46 AM 30.5697 -89.2167 246° West 336 387 38,000  Level Houston Center
Mon 09:27:48 AM 30.5319 -89.3178 247° West 342 394 38,000  Level Houston Center
Mon 09:28:49 AM 30.4936 -89.4153 245° Southwest 334 384 38,000  Level Houston Center
Mon 09:29:51 AM 30.4544 -89.5136 245° Southwest 336 387 38,000  Level Houston Center
Mon 09:30:52 AM 30.4167 -89.6100 246° West 332 382 38,000  Level Houston Center
Mon 09:31:54 AM 30.3778 -89.7069 245° Southwest 332 382 38,000  Level Houston Center
Mon 09:32:55 AM 30.3319 -89.8219 245° Southwest 333 383 38,000  Level Houston Center
Mon 09:33:57 AM 30.2950 -89.9131 245° Southwest 336 387 38,000  Level Houston Center
Mon 09:34:58 AM 30.2567 -90.0100 245° Southwest 335 386 38,000  Level Houston Center
Mon 09:36:00 AM 30.2189 -90.1064 246° West 331 381 38,000  Level Houston Center
Mon 09:37:01 AM 30.1800 -90.2028 245° Southwest 332 382 38,000  Level Houston Center
Mon 09:38:03 AM 30.1331 -90.3194 245° Southwest 335 386 38,000  Level Houston Center
Mon 09:39:04 AM 30.0944 -90.4161 245° Southwest 332 382 38,000  Level Houston Center
Mon 09:40:05 AM 30.0558 -90.5117 245° Southwest 331 381 38,000  Level Houston Center
Mon 09:41:07 AM 30.0172 -90.6078 245° Southwest 329 379 38,000  Level Houston Center
Mon 09:42:08 AM 29.9783 -90.7028 245° Southwest 330 380 38,000  Level Houston Center
Mon 09:43:10 AM 29.9636 -90.8067 261° West 327 376 38,000  Level Houston Center
Mon 09:44:11 AM 29.9450 -90.9089 258° West 326 375 38,000  Level Houston Center
Mon 09:45:13 AM 29.9264 -91.0089 258° West 321 369 38,000  Level Houston Center
Mon 09:46:14 AM 29.9094 -91.1086 259° West 320 368 38,000  Level Houston Center
Mon 09:47:16 AM 29.8889 -91.2294 259° West 319 367 38,000  Level Houston Center
Mon 09:48:17 AM 29.8700 -91.3289 258° West 319 367 38,000  Level Houston Center
Mon 09:49:19 AM 29.8533 -91.4289 259° West 319 367 38,000  Level Houston Center
Mon 09:50:20 AM 29.8344 -91.5306 258° West 323 372 38,000  Level Houston Center
Mon 09:51:22 AM 29.8172 -91.6322 259° West 325 374 38,000  Level Houston Center
Mon 09:52:23 AM 29.7964 -91.7478 258° West 323 372 38,000  Level Houston Center
Mon 09:53:25 AM 29.7772 -91.8494 258° West 325 374 38,000  Level Houston Center
Mon 09:54:26 AM 29.7597 -91.9483 259° West 318 366 38,000  Level Houston Center
Mon 09:55:28 AM 29.7403 -92.0489 257° West 320 368 38,000  Level Houston Center
Mon 09:56:29 AM 29.7217 -92.1481 258° West 319 367 38,000  Level Houston Center
Mon 09:57:31 AM 29.7039 -92.2475 258° West 318 366 38,000  Level Houston Center
Mon 09:58:32 AM 29.6861 -92.3464 258° West 317 365 38,000  Level Houston Center
Mon 09:59:34 AM 29.6672 -92.4450 258° West 317 365 38,000  Level Houston Center
Mon 10:00:35 AM 29.6494 -92.5439 258° West 317 365 38,000  Level Houston Center
Mon 10:01:37 AM 29.6261 -92.6628 257° West 317 365 38,000  Level Houston Center
Mon 10:02:38 AM 29.6072 -92.7631 258° West 320 368 38,000  Level Houston Center
Mon 10:03:40 AM 29.5881 -92.8625 258° West 320 368 38,000  Level Houston Center
Mon 10:04:41 AM 29.5700 -92.9619 258° West 318 366 38,000  Level Houston Center
Mon 10:05:43 AM 29.5508 -93.0625 258° West 322 371 38,000 -48 Level Houston Center
Mon 10:06:45 AM 29.5314 -93.1619 257° West 320 368 37,900 -1,073 Descending Houston Center
Mon 10:07:46 AM 29.5125 -93.2614 258° West 319 367 35,800 -2,000 Descending Houston Center
Mon 10:08:48 AM 29.4933 -93.3583 257° West 313 360 33,800 -2,129 Descending Houston Center
Mon 10:09:50 AM 29.4708 -93.4756 258° West 313 360 31,400 -2,146 Descending Houston Center
Mon 10:10:51 AM 29.4511 -93.5731 257° West 314 361 29,400 -1,902 Descending Houston Center
Mon 10:11:53 AM 29.4331 -93.6669 258° West 304 350 27,500 -1,839 Descending Houston Center
Mon 10:12:55 AM 29.4142 -93.7617 257° West 304 350 25,600 -1,805 Descending Houston Center
Mon 10:13:56 AM 29.3964 -93.8547 258° West 301 346 23,800 -1,707 Descending Houston Center
Mon 10:14:58 AM 29.3772 -93.9467 257° West 297 342 22,100 -1,856 Descending Houston Center
Mon 10:15:33 AM 29.3619 -94.0122 255° West 295 339 20,800 -1,742 Descending Houston Center
Mon 10:16:00 AM 29.3589 -94.0400 263° West 300 345 20,300 -1,714 Descending Houston Center
Mon 10:16:22 AM 29.3486 -94.0886 256° West 297 342 19,400 -1,770 Descending Houston Center
Mon 10:17:01 AM 29.3397 -94.1322 257° West 299 344 18,500 -1,672 Descending Houston Center
Mon 10:17:23 AM 29.3303 -94.1772 256° West 298 343 17,700 -1,839 Descending Houston Center
Mon 10:18:03 AM 29.3183 -94.2417 258° West 295 339 16,600 -1,700 Descending Houston Center
Mon 10:18:23 AM 29.3103 -94.2711 253° West 290 334 16,000 -1,742 Descending Houston Center
Mon 10:19:05 AM 29.3000 -94.3294 259° West 287 330 14,800 -1,839 Descending Houston Center
Mon 10:19:25 AM 29.2919 -94.3597 253° West 281 323 14,100 -1,770 Descending Houston Center
Mon 10:20:06 AM 29.2831 -94.4161 260° West 281 323 13,000 -1,672 Descending Houston Center
Mon 10:20:26 AM 29.2753 -94.4458 253° West 278 320 12,400 -1,065 Descending Houston Center
Mon 10:21:08 AM 29.2750 -94.5019 270° West 281 323 11,900 -896 Descending Houston Center
Mon 10:21:33 AM 29.2906 -94.5375 297° West 271 312 11,400 -968 Descending Houston Center
Mon 10:22:10 AM 29.3106 -94.5728 303° West 259 298 10,900 -1,082 Descending Houston Center
Mon 10:22:34 AM 29.3294 -94.6117 299° West 260 299 10,300 -968 Descending Houston Center
Mon 10:23:12 AM 29.3458 -94.6456 299° West 259 298 9,900 -885 Descending Houston Center
Mon 10:23:35 AM 29.3642 -94.6864 297° West 265 305 9,400 -984 Descending Houston Center
Mon 10:24:13 AM 29.3831 -94.7203 303° West 266 306 8,900 -1,082 Descending Houston Center
Mon 10:24:36 AM 29.4031 -94.7631 298° West 270 311 8,300 -871 Descending Houston Center
Mon 10:25:15 AM 29.4206 -94.7953 302° West 270 311 8,000 -295 Descending Houston Center
Mon 10:25:37 AM 29.4394 -94.8375 297° West 268 308 8,000 -290 Level Houston Center
Mon 10:26:17 AM 29.4639 -94.8842 301° West 268 308 7,700 -677 Descending Houston Center
Mon 10:26:39 AM 29.4761 -94.9122 297° West 268 308 7,300 -968 Descending Houston Center
Mon 10:27:19 AM 29.4997 -94.9578 301° West 266 306 6,700 -1,000 Descending Houston Center
Mon 10:27:39 AM 29.5150 -94.9892 299° West 265 305 6,300 -689 Descending Houston Center
Mon 10:28:20 AM 29.5356 -95.0308 300° West 263 303 6,000 -321 Descending Houston Center
Mon 10:28:35 AM 29.5467 -95.0572 296° West 260 299 6,000  Level Houston Center
Mon 10:29:22 AM 29.5706 -95.1025 301° West 260 299 6,000  Level Houston Center
Mon 10:29:42 AM 29.5853 -95.1342 298° West 256 295 6,000  Level Houston Center
Mon 10:30:24 AM 29.5950 -95.1733 286° West 248 285 6,000  Level Houston Center
Mon 10:30:43 AM 29.5828 -95.1969 239° Southwest 208 239 6,000 -387 Level Houston Center
Mon 10:31:26 AM 29.5633 -95.2333 238° Southwest 219 252 5,600 -885 Descending Houston Center
Mon 10:31:44 AM 29.5464 -95.2567 230° Southwest 213 245 5,100 -1,161 Descending Houston Center
Mon 10:32:28 AM 29.5219 -95.2819 222° Southwest 214 246 4,400 -1,082 Descending Houston Center
Mon 10:32:45 AM 29.5025 -95.3053 226° Southwest 217 250 4,000 -984 Descending Houston Center
Mon 10:33:29 AM 29.4794 -95.3303 223° Southwest 215 247 3,400 -871 Descending Houston Center
Mon 10:33:47 AM 29.4844 -95.3603 281° West 208 239 3,100 -677 Descending Houston Center
Mon 10:34:31 AM 29.5078 -95.3822 321° Northwest 213 245 2,700 -800 Descending Houston Center
Mon 10:34:47 AM 29.5342 -95.3758 12° North 198 228 2,300 -968 Descending Houston Center
Mon 10:35:33 AM 29.5692 -95.3631 18° North 202 232 1,700 -774 Descending Houston Center
Mon 10:35:49 AM 29.5781 -95.3514 49° Northeast 176 203 1,500 -581 Descending Houston Center
Mon 10:36:35 AM 29.6017 -95.3261 43° Northeast 176 203 1,100 -590 Descending Houston Center
Mon 10:36:50 AM 29.6086 -95.3189 42° Northeast 134 154 900 -689 Descending Houston Center
Mon 10:37:36 AM 29.6269 -95.2978 45° Northeast 147 169 400 -689 Descending Houston Center
Mon 10:37:51 AM 29.6336 -95.2917 39° Northeast 124 143 200 -290 Descending Houston Center
Mon 10:38:38 AM 29.6506 -95.2708 47° Northeast 140 161 100 -128 Descending Houston Center

Login

Don't have an account? Register now (free) for customized features, flight alerts, and more!